LIPX/VRN METAR and TAF weather

Enter ICAO airport designator
Station Type Date Time Source
LIPX METAR 2019/08/26 07:20 UTC NOAA

LIPX 260720Z VRB02KT CAVOK 25/18 Q1018


Station Type Date Time Source
LIPX Decoded METAR 2019/08/26 07:20 UTC NOAA

Station name not available
Aug 26, 2019 - 03:20 AM EDT / 2019.08.26 0720 UTC
Wind: Variable at 2 MPH (2 KT):0
Visibility: greater than 7 mile(s):0
Temperature: 77 F (25 C)
Dew Point: 64 F (18 C)
Relative Humidity: 65%
Pressure (altimeter): 30.06 in. Hg (1018 hPa)
ob: LIPX 260720Z VRB02KT CAVOK 25/18 Q1018
cycle: 7

Station Type Date Time Source
LIPX TAF 2014/04/22 15:24 UTC NOAA

TAF LIPX 221400Z 2215/2324 VRB05KT 9999 SCT030 SCT070
TEMPO 2215/2218 SCT025CB SCT080 PROB30
TEMPO 2215/2218 TS

Example: see airport list